Time;durP1;ratioP1;P1;durP2;ratioP2;P2;SDS_P1;SDS_P2;PMS_P1;PMS_P2;Temp;Humidity;BMP_temperature;BMP_pressure;BME280_temperature;BME280_humidity;BME280_pressure;Samples;Min_cycle;Max_cycle;Signal;HPM_P1;HPM_P2
2022/12/12 00:02:22;;;;;;;46.92;25.77;;;;;;;-1.37;100.00;99723.59;5014197;28;20026;-69
2022/12/12 00:04:47;;;;;;;42.25;23.10;;;;;;;-1.37;100.00;99731.75;4998657;28;20029;-69
2022/12/12 00:07:13;;;;;;;44.53;23.45;;;;;;;-1.33;100.00;99722.06;4980217;28;20556;-69
2022/12/12 00:09:38;;;;;;;45.17;23.27;;;;;;;-1.33;100.00;99719.34;5007943;28;20029;-69
2022/12/12 00:12:04;;;;;;;49.35;25.25;;;;;;;-1.33;100.00;99713.91;4998133;28;20026;-69
2022/12/12 00:14:29;;;;;;;48.83;25.20;;;;;;;-1.32;100.00;99720.16;4998101;28;20041;-69
2022/12/12 00:16:55;;;;;;;50.47;26.55;;;;;;;-1.31;100.00;99717.22;4992762;28;20030;-69
2022/12/12 00:19:20;;;;;;;45.58;25.08;;;;;;;-1.30;100.00;99720.78;4981911;28;20060;-69
2022/12/12 00:21:46;;;;;;;43.03;23.70;;;;;;;-1.28;100.00;99715.91;4997778;28;20034;-69
2022/12/12 00:24:11;;;;;;;43.20;23.48;;;;;;;-1.30;100.00;99713.41;4998169;28;20042;-69
2022/12/12 00:26:36;;;;;;;45.95;24.20;;;;;;;-1.29;100.00;99717.78;4997834;28;20096;-69
2022/12/12 00:29:03;;;;;;;47.63;25.20;;;;;;;-1.28;100.00;99705.84;5014363;28;20034;-69
2022/12/12 00:31:29;;;;;;;48.13;24.67;;;;;;;-1.27;100.00;99699.31;4998176;28;20041;-69
2022/12/12 00:33:54;;;;;;;46.92;23.73;;;;;;;-1.26;100.00;99703.69;4994396;28;20033;-69
2022/12/12 00:36:22;;;;;;;47.72;23.65;;;;;;;-1.25;100.00;99699.94;4981774;28;20042;-69
2022/12/12 00:38:48;;;;;;;44.70;23.63;;;;;;;-1.23;100.00;99714.13;4982055;28;20038;-69
2022/12/12 00:41:14;;;;;;;56.33;26.42;;;;;;;-1.22;100.00;99720.41;4998129;28;20030;-69
2022/12/12 00:43:39;;;;;;;59.13;27.00;;;;;;;-1.22;100.00;99725.88;5020941;28;20437;-69
2022/12/12 00:46:05;;;;;;;47.92;25.00;;;;;;;-1.22;100.00;99725.88;5020886;28;20038;-69
2022/12/12 00:48:30;;;;;;;50.88;24.77;;;;;;;-1.20;100.00;99734.63;4997888;28;20030;-69
2022/12/12 00:50:56;;;;;;;49.85;24.42;;;;;;;-1.22;100.00;99732.16;4997691;28;20108;-69
2022/12/12 00:53:21;;;;;;;48.58;24.45;;;;;;;-1.21;100.00;99724.78;4994548;28;20031;-69
2022/12/12 00:55:55;;;;;;;50.30;24.42;;;;;;;-1.21;100.00;99717.44;5014141;28;20037;-69
2022/12/12 00:58:21;;;;;;;52.65;24.42;;;;;;;-1.21;100.00;99730.25;4994127;28;20030;-69
2022/12/12 01:00:46;;;;;;;50.70;24.73;;;;;;;-1.18;100.00;99727.88;5014168;28;20505;-69
2022/12/12 01:03:12;;;;;;;47.85;22.63;;;;;;;-1.18;100.00;99732.50;4965455;28;20062;-69
2022/12/12 01:05:37;;;;;;;49.15;23.08;;;;;;;-1.17;100.00;99721.38;5014091;28;20474;-69
2022/12/12 01:08:03;;;;;;;46.08;22.20;;;;;;;-1.16;100.00;99733.91;4989887;28;20406;-69
2022/12/12 01:10:28;;;;;;;43.58;21.23;;;;;;;-1.14;100.00;99728.25;5034108;28;20490;-69
2022/12/12 01:12:54;;;;;;;43.53;22.75;;;;;;;-1.12;100.00;99726.09;5017425;28;20033;-69
2022/12/12 01:15:19;;;;;;;57.72;25.92;;;;;;;-1.12;100.00;99729.66;5033892;28;20375;-69
2022/12/12 01:17:45;;;;;;;46.95;23.15;;;;;;;-1.14;100.00;99723.63;5033536;28;20438;-69
2022/12/12 01:20:21;;;;;;;45.50;22.73;;;;;;;-1.14;100.00;99731.78;5017240;28;20040;-69
2022/12/12 01:22:47;;;;;;;42.22;22.17;;;;;;;-1.12;100.00;99734.28;5001502;28;20018;-69
2022/12/12 01:25:13;;;;;;;51.00;24.90;;;;;;;-1.09;100.00;99735.69;5020121;28;20037;-69
2022/12/12 01:27:38;;;;;;;47.10;23.02;;;;;;;-1.14;100.00;99737.25;5013968;28;20061;-69
2022/12/12 01:30:05;;;;;;;47.38;22.58;;;;;;;-1.12;100.00;99731.53;5000849;28;20034;-69
2022/12/12 01:32:30;;;;;;;48.08;22.55;;;;;;;-1.10;100.00;99734.03;4997248;28;20038;-70
2022/12/12 01:34:56;;;;;;;40.20;21.35;;;;;;;-1.08;100.00;99721.03;4999570;28;20045;-69
2022/12/12 01:37:21;;;;;;;42.13;21.08;;;;;;;-1.08;100.00;99721.84;5000982;28;20060;-69
2022/12/12 01:39:46;;;;;;;46.67;23.08;;;;;;;-1.07;100.00;99720.78;5000982;28;20033;-70
2022/12/12 01:42:13;;;;;;;45.78;23.38;;;;;;;-1.07;100.00;99728.94;4985059;28;20029;-69
2022/12/12 01:44:48;;;;;;;43.63;21.50;;;;;;;-1.06;100.00;99724.31;5001089;28;20371;-69
2022/12/12 01:47:18;;;;;;;43.65;21.17;;;;;;;-1.06;100.00;99725.13;5000538;28;20198;-69
2022/12/12 01:49:48;;;;;;;42.72;21.25;;;;;;;-1.07;100.00;99717.22;5001411;28;20053;-69
2022/12/12 01:52:18;;;;;;;41.55;20.80;;;;;;;-1.06;100.00;99718.88;4982453;28;20076;-69
2022/12/12 01:54:45;;;;;;;42.58;20.05;;;;;;;-1.05;100.00;99717.81;5000406;28;20038;-69
2022/12/12 01:57:14;;;;;;;40.53;20.17;;;;;;;-1.03;100.00;99713.78;4984569;28;20034;-69
2022/12/12 01:59:40;;;;;;;42.72;21.10;;;;;;;-1.03;100.00;99710.22;5035282;28;20112;-69
2022/12/12 02:02:06;;;;;;;42.28;20.60;;;;;;;-1.04;100.00;99724.91;5020145;28;20037;-69
2022/12/12 02:04:31;;;;;;;43.20;20.38;;;;;;;-1.04;100.00;99728.47;5004967;28;20057;-69
2022/12/12 02:06:57;;;;;;;41.60;20.65;;;;;;;-1.03;100.00;99737.47;5004971;28;20068;-69
2022/12/12 02:09:23;;;;;;;42.30;21.33;;;;;;;-1.01;100.00;99744.34;5003947;28;20136;-70
2022/12/12 02:11:51;;;;;;;40.50;19.50;;;;;;;-1.02;100.00;99756.31;4987781;28;20437;-69
2022/12/12 02:14:30;;;;;;;43.30;20.58;;;;;;;-1.01;100.00;99759.88;5018022;28;20030;-69
2022/12/12 02:17:06;;;;;;;38.58;18.77;;;;;;;-0.99;100.00;99763.19;5001042;28;20112;-69
2022/12/12 02:20:16;;;;;;;41.97;19.70;;;;;;;-0.99;100.00;99769.47;5001281;28;20025;-70
2022/12/12 02:22:57;;;;;;;42.17;20.45;;;;;;;-0.99;100.00;99782.28;5001418;28;20038;-69
2022/12/12 02:25:42;;;;;;;41.20;19.83;;;;;;;-0.99;100.00;99777.66;5006763;28;20030;-69
2022/12/12 02:28:27;;;;;;;46.10;20.70;;;;;;;-0.99;100.00;99764.03;5027524;28;20022;-69
2022/12/12 02:30:59;;;;;;;47.85;20.50;;;;;;;-0.98;100.00;99759.41;5008651;28;20046;-69
2022/12/12 02:33:34;;;;;;;43.55;19.60;;;;;;;-0.97;100.00;99772.81;5021605;28;20034;-69
2022/12/12 02:36:11;;;;;;;44.22;20.23;;;;;;;-0.97;100.00;99761.91;5020518;28;20072;-69
2022/12/12 02:38:54;;;;;;;41.42;19.80;;;;;;;-0.98;100.00;99768.41;5004127;28;20026;-69
2022/12/12 02:41:24;;;;;;;;;;;;;;;-0.97;100.00;99764.63;5021067;28;20038;-69
2022/12/12 02:44:10;;;;;;;45.30;20.85;;;;;;;-0.96;100.00;99770.91;5020272;28;19913;-69
2022/12/12 02:46:39;;;;;;;45.33;21.92;;;;;;;-0.96;100.00;99762.72;5004449;28;20115;-69
2022/12/12 02:49:08;;;;;;;50.00;21.13;;;;;;;-0.95;100.00;99761.66;5004595;28;20034;-69
2022/12/12 02:51:34;;;;;;;48.83;22.13;;;;;;;-0.95;100.00;99767.09;5002266;28;20044;-69
2022/12/12 02:53:59;;;;;;;47.55;22.75;;;;;;;-0.94;100.00;99760.59;4996369;28;20026;-69
2022/12/12 02:56:43;;;;;;;52.75;23.50;;;;;;;-0.92;100.00;99766.63;5035499;28;20074;-69
2022/12/12 02:59:20;;;;;;;49.60;23.25;;;;;;;-0.92;100.00;99764.75;5009959;28;20038;-69
2022/12/12 03:01:49;;;;;;;46.10;22.05;;;;;;;-0.92;100.00;99766.63;4984308;28;20022;-69
2022/12/12 03:07:46;;;;;;;46.85;23.13;;;;;;;-0.91;100.00;99766.41;5016276;28;20410;-69
2022/12/12 03:10:50;;;;;;;49.38;22.88;;;;;;;-0.91;100.00;99757.41;5028360;28;20432;-69
2022/12/12 03:13:27;;;;;;;51.03;22.38;;;;;;;-0.91;100.00;99755.50;5036052;28;20045;-69
2022/12/12 03:15:56;;;;;;;49.03;23.23;;;;;;;-0.90;100.00;99756.31;5061995;28;20403;-69
2022/12/12 03:18:35;;;;;;;47.38;22.95;;;;;;;-0.90;100.00;99748.13;5042114;28;20060;-69
2022/12/12 03:21:14;;;;;;;52.67;24.30;;;;;;;-0.88;100.00;99754.19;4999172;28;20065;-69
2022/12/12 03:23:45;;;;;;;46.88;22.10;;;;;;;-0.88;100.00;99758.81;5000129;28;20113;-69
2022/12/12 03:26:10;;;;;;;51.47;23.77;;;;;;;-0.87;100.00;99761.28;4999304;28;20030;-69
2022/12/12 03:28:53;;;;;;;41.58;22.00;;;;;;;-0.85;100.00;99764.63;5014371;28;20534;-69
2022/12/12 03:31:20;;;;;;;49.80;22.58;;;;;;;-0.86;100.00;99762.97;4986914;28;20098;-69
2022/12/12 03:33:50;;;;;;;54.80;26.15;;;;;;;-0.87;100.00;99750.38;5017614;28;20030;-69
2022/12/12 03:36:20;;;;;;;47.58;23.38;;;;;;;-0.83;100.00;99756.22;5007324;28;20054;-69
2022/12/12 03:38:55;;;;;;;50.97;24.33;;;;;;;-0.84;100.00;99755.34;4982713;28;20030;-69
2022/12/12 03:41:21;;;;;;;44.97;22.20;;;;;;;-0.83;100.00;99764.41;5030619;28;20693;-69
2022/12/12 03:44:13;;;;;;;48.80;22.25;;;;;;;-0.83;100.00;99767.94;4983316;28;20057;-69
2022/12/12 03:46:42;;;;;;;43.65;22.27;;;;;;;-0.82;100.00;99763.31;4999676;28;20029;-69
2022/12/12 03:49:31;;;;;;;48.22;22.33;;;;;;;-0.82;100.00;99757.88;4982660;28;20123;-69
2022/12/12 03:52:00;;;;;;;51.17;22.95;;;;;;;-0.82;100.00;99755.13;4998902;28;20037;-69
2022/12/12 03:54:34;;;;;;;44.72;22.35;;;;;;;-0.82;100.00;99755.97;5023482;28;20113;-69
2022/12/12 03:57:27;;;;;;;45.38;22.60;;;;;;;-0.83;100.00;99757.03;5013593;28;20065;-69
2022/12/12 03:59:56;;;;;;;45.78;22.60;;;;;;;-0.84;100.00;99752.63;4984688;28;20046;-69
2022/12/12 04:02:37;;;;;;;46.45;22.38;;;;;;;-0.83;100.00;99748.88;4982230;28;20109;-69
2022/12/12 04:05:23;;;;;;;42.67;21.50;;;;;;;-0.79;100.00;99752.75;5000122;28;20029;-69
2022/12/12 04:07:50;;;;;;;44.92;20.95;;;;;;;-0.79;100.00;99763.66;4983815;28;20080;-69
2022/12/12 04:13:09;;;;;;;50.92;23.17;;;;;;;-0.79;100.00;99752.75;5004062;28;20040;-69
2022/12/12 04:15:55;;;;;;;45.22;22.25;;;;;;;-0.78;100.00;99759.88;4998227;28;20057;-69
2022/12/12 04:18:35;;;;;;;44.97;21.55;;;;;;;-0.77;100.00;99750.63;4981873;28;20030;-69
2022/12/12 04:23:57;;;;;;;43.10;20.98;;;;;;;-0.78;100.00;99746.25;5034141;28;20465;-69
2022/12/12 04:26:38;;;;;;;42.58;21.58;;;;;;;-0.76;100.00;99738.66;5021767;28;20044;-69
2022/12/12 04:29:21;;;;;;;41.60;20.88;;;;;;;-0.78;100.00;99738.06;4998218;28;20115;-69
2022/12/12 04:32:13;;;;;;;39.20;19.75;;;;;;;-0.77;100.00;99739.72;4998057;28;20029;-69
2022/12/12 04:34:46;;;;;;;40.58;20.20;;;;;;;-0.76;100.00;99744.09;5014530;28;20044;-69
2022/12/12 04:37:14;;;;;;;42.38;21.05;;;;;;;-0.75;100.00;99743.03;5053514;28;20049;-69
2022/12/12 04:39:39;;;;;;;41.88;20.08;;;;;;;-0.75;100.00;99743.03;5004968;28;20034;-69
2022/12/12 04:42:05;;;;;;;42.92;20.70;;;;;;;-0.77;100.00;99739.72;4998111;28;20033;-69
2022/12/12 04:44:31;;;;;;;36.80;19.38;;;;;;;-0.77;100.00;99739.72;4981927;28;20117;-69
2022/12/12 04:46:56;;;;;;;39.83;19.17;;;;;;;-0.78;100.00;99738.06;4997800;28;20600;-69
2022/12/12 04:49:26;;;;;;;38.35;18.33;;;;;;;-0.75;100.00;99748.50;4998218;28;20668;-69
2022/12/12 04:51:53;;;;;;;44.50;19.85;;;;;;;-0.75;100.00;99736.78;5021204;28;20113;-69
2022/12/12 04:54:43;;;;;;;39.63;18.95;;;;;;;-0.75;100.00;99745.78;5030268;28;20073;-69
2022/12/12 04:57:10;;;;;;;39.13;18.92;;;;;;;-0.75;100.00;99747.69;4994544;28;20034;-69
2022/12/12 04:59:36;;;;;;;37.05;17.95;;;;;;;-0.74;100.00;99760.22;5048200;28;20079;-69
2022/12/12 05:02:23;;;;;;;40.80;18.52;;;;;;;-0.72;100.00;99767.09;5017232;28;20037;-69
2022/12/12 05:04:54;;;;;;;38.20;18.73;;;;;;;-0.71;100.00;99765.22;5001609;28;20585;-69
2022/12/12 05:07:27;;;;;;;37.50;18.67;;;;;;;-0.72;100.00;99758.09;5030146;28;20022;-69
2022/12/12 05:09:52;;;;;;;38.55;18.85;;;;;;;-0.70;100.00;99762.25;4967976;28;20029;-69
2022/12/12 05:12:19;;;;;;;37.22;18.77;;;;;;;-0.72;100.00;99764.38;5017970;28;20660;-69
2022/12/12 05:14:45;;;;;;;38.30;19.00;;;;;;;-0.71;100.00;99766.03;5002287;28;20030;-69
2022/12/12 05:17:12;;;;;;;35.17;18.15;;;;;;;-0.71;100.00;99757.84;5017286;28;20052;-69
2022/12/12 05:19:37;;;;;;;34.47;18.10;;;;;;;-0.69;100.00;99758.44;4985422;28;20033;-69
2022/12/12 05:22:03;;;;;;;38.88;18.95;;;;;;;-0.70;100.00;99764.97;5001478;28;20088;-69
2022/12/12 05:24:30;;;;;;;37.00;17.90;;;;;;;-0.71;100.00;99757.84;5017888;28;20030;-69
2022/12/12 05:26:57;;;;;;;38.70;19.05;;;;;;;-0.70;100.00;99764.13;5001402;28;20507;-69
2022/12/12 05:29:22;;;;;;;37.00;18.00;;;;;;;-0.70;100.00;99754.06;5001429;28;20033;-69
2022/12/12 05:31:48;;;;;;;40.40;19.95;;;;;;;-0.69;100.00;99763.09;5000811;28;20053;-69
2022/12/12 05:34:13;;;;;;;44.20;20.50;;;;;;;-0.66;100.00;99748.13;4984653;28;20029;-69
2022/12/12 05:36:39;;;;;;;40.88;19.05;;;;;;;-0.69;100.00;99744.81;5001183;28;20042;-69
2022/12/12 05:39:04;;;;;;;37.63;17.77;;;;;;;-0.68;100.00;99745.63;5001154;28;20037;-69
2022/12/12 05:41:30;;;;;;;36.05;18.73;;;;;;;-0.66;100.00;99751.69;5001067;28;20026;-69
2022/12/12 05:43:55;;;;;;;38.30;16.70;;;;;;;-0.69;100.00;99744.81;5001464;28;20026;-69
2022/12/12 05:46:21;;;;;;;38.17;18.70;;;;;;;-0.69;100.00;99746.72;5001050;28;20083;-69
2022/12/12 05:48:49;;;;;;;40.35;18.83;;;;;;;-0.66;100.00;99750.88;5000760;28;20030;-69
2022/12/12 05:51:18;;;;;;;36.20;18.75;;;;;;;-0.66;100.00;99753.59;5018612;28;20390;-69
2022/12/12 05:53:43;;;;;;;40.60;18.58;;;;;;;-0.65;100.00;99747.06;4981622;28;20022;-69
2022/12/12 05:56:10;;;;;;;40.05;19.10;;;;;;;-0.64;100.00;99748.72;4983574;28;20076;-69
2022/12/12 05:58:36;;;;;;;39.00;19.10;;;;;;;-0.65;100.00;99739.69;5000684;28;20025;-69
2022/12/12 06:01:02;;;;;;;42.35;19.83;;;;;;;-0.66;100.00;99742.69;5017135;28;20033;-69
2022/12/12 06:03:28;;;;;;;40.58;19.25;;;;;;;-0.66;100.00;99748.97;4984620;28;20026;-69
2022/12/12 06:05:53;;;;;;;45.50;20.05;;;;;;;-0.68;100.00;99770.19;5016995;28;20029;-69
2022/12/12 06:08:19;;;;;;;37.50;18.67;;;;;;;-0.70;100.00;99773.16;5000950;28;20483;-69
2022/12/12 06:10:44;;;;;;;36.72;18.30;;;;;;;-0.70;100.00;99767.72;5016964;28;20030;-69
2022/12/12 06:13:10;;;;;;;39.40;18.70;;;;;;;-0.69;100.00;99771.25;4984489;28;20034;-69
2022/12/12 06:15:38;;;;;;;35.40;17.73;;;;;;;-0.68;100.00;99764.72;5000987;28;20108;-69
2022/12/12 06:18:03;;;;;;;38.50;17.92;;;;;;;-0.67;100.00;99763.66;5016647;28;20030;-69
2022/12/12 06:20:29;;;;;;;32.75;16.35;;;;;;;-0.67;100.00;99771.81;4972138;28;20079;-69
2022/12/12 06:22:55;;;;;;;34.97;15.90;;;;;;;-0.66;100.00;99772.69;5009189;28;20049;-69
2022/12/12 06:25:20;;;;;;;31.88;15.75;;;;;;;-0.65;100.00;99757.97;5000376;28;20057;-69
2022/12/12 06:27:46;;;;;;;30.48;15.55;;;;;;;-0.66;100.00;99750.88;5021190;28;20091;-69
2022/12/12 06:30:12;;;;;;;31.30;15.20;;;;;;;-0.65;100.00;99744.34;4986071;28;20397;-69
2022/12/12 06:32:37;;;;;;;33.00;14.52;;;;;;;-0.65;100.00;99742.44;5000082;28;20030;-69
2022/12/12 06:35:03;;;;;;;29.23;14.80;;;;;;;-0.66;100.00;99746.25;4999723;28;20046;-69
2022/12/12 06:37:28;;;;;;;29.88;15.00;;;;;;;-0.64;100.00;99749.56;5031214;28;20046;-67
2022/12/12 06:39:54;;;;;;;30.00;15.50;;;;;;;-0.64;100.00;99751.44;5049402;28;20393;-69
2022/12/12 06:42:19;;;;;;;27.75;14.20;;;;;;;-0.64;100.00;99754.16;4983881;28;20035;-69
2022/12/12 06:44:45;;;;;;;29.00;14.60;;;;;;;-0.63;100.00;99744.94;4983727;28;20080;-69
2022/12/12 06:47:10;;;;;;;27.02;13.68;;;;;;;-0.65;100.00;99736.97;5019841;28;20087;-69
2022/12/12 06:49:36;;;;;;;27.48;13.38;;;;;;;-0.63;100.00;99734.84;5004113;28;20037;-69
2022/12/12 06:52:01;;;;;;;29.65;14.45;;;;;;;-0.62;100.00;99732.94;5004079;28;20045;-69
2022/12/12 06:54:27;;;;;;;29.02;14.40;;;;;;;-0.64;100.00;99737.81;5005339;28;20030;-69
2022/12/12 06:56:52;;;;;;;26.65;13.35;;;;;;;-0.65;100.00;99738.88;5013519;28;20345;-69
2022/12/12 06:59:18;;;;;;;25.38;13.15;;;;;;;-0.66;100.00;99742.69;5003773;28;20038;-69
2022/12/12 07:01:43;;;;;;;26.73;13.40;;;;;;;-0.68;100.00;99748.38;5019812;28;20037;-69
2022/12/12 07:04:12;;;;;;;27.13;13.50;;;;;;;-0.65;100.00;99747.06;5020188;28;20041;-69
2022/12/12 07:06:38;;;;;;;23.70;12.77;;;;;;;-0.64;100.00;99737.81;4987907;28;20248;-69
2022/12/12 07:09:03;;;;;;;24.27;13.27;;;;;;;-0.66;100.00;99748.97;5003776;28;20033;-69
2022/12/12 07:11:29;;;;;;;27.65;13.63;;;;;;;-0.67;100.00;99739.09;4987565;28;20038;-69
2022/12/12 07:13:55;;;;;;;26.85;13.65;;;;;;;-0.66;100.00;99734.50;5001266;28;20034;-69
2022/12/12 07:16:20;;;;;;;29.92;13.93;;;;;;;-0.69;100.00;99735.81;4999345;28;20036;-69
2022/12/12 07:18:46;;;;;;;25.80;13.55;;;;;;;-0.71;100.00;99744.22;4999213;28;20030;-68
2022/12/12 07:21:14;;;;;;;25.58;13.20;;;;;;;-0.70;100.00;99748.63;4999416;28;20223;-68
2022/12/12 07:23:40;;;;;;;27.00;14.02;;;;;;;-0.69;100.00;99746.72;4999215;28;20490;-69
2022/12/12 07:26:08;;;;;;;28.63;13.27;;;;;;;-0.71;100.00;99737.94;5012205;28;20049;-68
2022/12/12 07:28:33;;;;;;;26.48;13.50;;;;;;;-0.70;100.00;99743.16;4999800;28;20494;-68
2022/12/12 07:31:00;;;;;;;26.80;12.93;;;;;;;-0.71;100.00;99733.31;5004291;28;20037;-68
2022/12/12 07:33:25;;;;;;;27.30;13.38;;;;;;;-0.71;100.00;99725.13;5014279;28;20057;-68
2022/12/12 07:35:51;;;;;;;24.83;13.18;;;;;;;-0.72;100.00;99720.75;4999057;28;20076;-68
2022/12/12 07:38:16;;;;;;;32.25;13.52;;;;;;;-0.75;100.00;99715.78;4982654;28;20038;-68
2022/12/12 07:40:42;;;;;;;28.92;13.38;;;;;;;-0.73;100.00;99708.16;5015177;28;20080;-68
2022/12/12 07:43:07;;;;;;;25.27;13.57;;;;;;;-0.72;100.00;99720.75;4982764;28;20033;-68
2022/12/12 07:45:33;;;;;;;24.65;12.13;;;;;;;-0.73;100.00;99727.25;4998944;28;20096;-68
2022/12/12 07:47:58;;;;;;;31.58;14.55;;;;;;;-0.75;100.00;99726.69;5014962;28;20029;-68
2022/12/12 07:50:23;;;;;;;27.05;13.30;;;;;;;-0.76;100.00;99727.75;5015280;28;20037;-68
2022/12/12 07:52:49;;;;;;;26.42;13.52;;;;;;;-0.77;100.00;99723.38;4998645;28;20034;-68
2022/12/12 07:55:14;;;;;;;25.98;12.48;;;;;;;-0.75;100.00;99726.69;5011762;28;20038;-68
2022/12/12 07:57:40;;;;;;;27.08;12.77;;;;;;;-0.76;100.00;99727.75;5009874;28;20040;-68
2022/12/12 08:00:07;;;;;;;26.20;13.65;;;;;;;-0.77;100.00;99728.00;4982475;28;20076;-68
2022/12/12 08:02:32;;;;;;;27.77;14.02;;;;;;;-0.78;100.00;99720.88;4998589;28;20026;-68
2022/12/12 08:04:57;;;;;;;27.95;13.50;;;;;;;-0.79;100.00;99708.31;5015160;28;20038;-68
2022/12/12 08:07:23;;;;;;;25.02;13.23;;;;;;;-0.79;100.00;99709.13;4998584;28;20034;-68
2022/12/12 08:09:49;;;;;;;31.95;14.48;;;;;;;-0.79;100.00;99698.22;4982281;28;20053;-68
2022/12/12 08:12:14;;;;;;;25.08;13.90;;;;;;;-0.82;100.00;99690.53;4982084;28;20037;-68
2022/12/12 08:14:39;;;;;;;26.77;13.10;;;;;;;-0.80;100.00;99688.41;5014977;28;20096;-68
2022/12/12 08:17:05;;;;;;;27.10;13.85;;;;;;;-0.80;100.00;99676.66;5014635;28;20041;-68
2022/12/12 08:19:31;;;;;;;31.33;15.23;;;;;;;-0.84;100.00;99676.31;5014683;28;20030;-68
2022/12/12 08:21:56;;;;;;;26.55;13.98;;;;;;;-0.83;100.00;99669.78;5031116;28;20043;-68
2022/12/12 08:24:22;;;;;;;27.40;14.32;;;;;;;-0.83;100.00;99674.44;5014831;28;20494;-68
2022/12/12 08:26:48;;;;;;;29.02;14.80;;;;;;;-0.84;100.00;99676.31;4997914;28;20030;-68
2022/12/12 08:29:13;;;;;;;30.50;15.10;;;;;;;-0.82;100.00;99681.53;4983574;28;20088;-69
2022/12/12 08:31:39;;;;;;;37.22;17.48;;;;;;;-0.86;100.00;99680.34;5005800;28;20395;-68
2022/12/12 08:34:05;;;;;;;30.20;15.95;;;;;;;-0.85;100.00;99680.09;4981632;28;20030;-68
2022/12/12 08:36:31;;;;;;;30.02;15.82;;;;;;;-0.86;100.00;99683.91;4981691;28;20096;-68
2022/12/12 08:38:57;;;;;;;33.63;16.85;;;;;;;-0.85;100.00;99691.00;4998234;28;20052;-68
2022/12/12 08:41:23;;;;;;;36.00;15.93;;;;;;;-0.83;100.00;99697.06;4997903;28;20129;-68
2022/12/12 08:43:49;;;;;;;31.15;17.10;;;;;;;-0.84;100.00;99710.91;5001734;28;20026;-68
2022/12/12 08:46:15;;;;;;;30.73;15.55;;;;;;;-0.85;100.00;99698.38;5004581;28;20084;-68
2022/12/12 08:48:41;;;;;;;31.70;16.20;;;;;;;-0.90;100.00;99690.88;5004474;28;20041;-68
2022/12/12 08:51:06;;;;;;;27.95;14.93;;;;;;;-0.93;100.00;99691.38;5020928;28;20034;-68
2022/12/12 08:53:32;;;;;;;27.50;14.30;;;;;;;-0.94;100.00;99689.72;5000959;28;20034;-68
2022/12/12 08:55:57;;;;;;;27.73;14.32;;;;;;;-0.95;100.00;99694.34;5022068;28;20056;-71
2022/12/12 08:58:23;;;;;;;29.45;14.50;;;;;;;-0.93;100.00;99696.81;5012436;28;20079;-68
2022/12/12 09:00:48;;;;;;;25.52;14.07;;;;;;;-0.92;100.00;99703.94;5009691;28;20034;-68
2022/12/12 09:03:14;;;;;;;28.48;14.38;;;;;;;-0.94;100.00;99700.63;5020552;28;20033;-68
2022/12/12 09:05:43;;;;;;;28.48;14.93;;;;;;;-0.96;100.00;99694.59;5020769;28;20030;-68
2022/12/12 09:08:10;;;;;;;34.42;15.48;;;;;;;-0.96;100.00;99684.50;4988408;28;20040;-68
2022/12/12 09:10:36;;;;;;;31.25;16.10;;;;;;;-0.94;100.00;99689.72;5004339;28;20451;-68
2022/12/12 09:13:01;;;;;;;27.77;14.73;;;;;;;-0.94;100.00;99692.44;5020773;28;20026;-68
2022/12/12 09:15:27;;;;;;;28.58;14.82;;;;;;;-0.95;100.00;99694.34;5020790;28;20037;-68
2022/12/12 09:17:52;;;;;;;28.77;14.88;;;;;;;-0.96;100.00;99702.75;5003965;28;20525;-68
2022/12/12 09:20:18;;;;;;;28.52;13.88;;;;;;;-0.96;100.00;99686.41;5020690;28;20065;-68
2022/12/12 09:22:43;;;;;;;31.90;15.65;;;;;;;-1.04;100.00;99684.84;4987921;28;20107;-68
2022/12/12 09:25:09;;;;;;;27.58;15.20;;;;;;;-1.05;100.00;99691.38;5004398;28;20026;-68
2022/12/12 09:27:34;;;;;;;30.83;14.70;;;;;;;-1.07;100.00;99684.53;5004180;28;20026;-68
2022/12/12 09:30:00;;;;;;;25.13;13.88;;;;;;;-1.08;100.00;99677.41;5034249;28;20147;-68
2022/12/12 09:32:25;;;;;;;27.60;14.43;;;;;;;-1.09;100.00;99678.47;5020148;28;20026;-68
2022/12/12 09:34:51;;;;;;;27.92;14.70;;;;;;;-1.10;100.00;99687.72;5004346;28;20038;-68
2022/12/12 09:37:17;;;;;;;31.33;15.85;;;;;;;-1.08;100.00;99671.97;4987977;28;20060;-68
2022/12/12 09:39:42;;;;;;;28.38;15.82;;;;;;;-1.10;100.00;99682.28;5003959;28;20030;-68
2022/12/12 09:42:25;;;;;;;28.33;15.23;;;;;;;-1.10;100.00;99680.38;5004418;28;20031;-68
2022/12/12 09:44:56;;;;;;;31.27;16.23;;;;;;;-1.13;100.00;99681.66;5005841;28;20117;-68
2022/12/12 09:47:33;;;;;;;35.80;17.00;;;;;;;-1.09;100.00;99692.09;5003940;28;20495;-68
2022/12/12 09:50:01;;;;;;;31.60;16.55;;;;;;;-1.10;100.00;99704.06;4987921;28;20030;-68
2022/12/12 09:52:31;;;;;;;31.40;16.27;;;;;;;-1.10;100.00;99690.44;5004101;28;20088;-68
2022/12/12 09:55:03;;;;;;;35.33;17.83;;;;;;;-1.07;100.00;99689.97;5002189;28;20045;-68
2022/12/12 09:57:45;;;;;;;39.33;19.88;;;;;;;-1.07;100.00;99679.06;4996099;28;20037;-68
2022/12/12 10:00:11;;;;;;;43.22;21.15;;;;;;;-1.06;100.00;99680.72;5001642;28;20084;-68
2022/12/12 10:02:55;;;;;;;58.42;24.52;;;;;;;-1.10;100.00;99685.00;4984543;28;20395;-68
2022/12/12 10:05:37;;;;;;;55.25;24.08;;;;;;;-1.08;100.00;99682.88;5017205;28;20394;-68
2022/12/12 10:08:18;;;;;;;52.83;24.53;;;;;;;-1.08;100.00;99682.88;5005027;28;20084;-68
2022/12/12 10:10:45;;;;;;;52.03;24.42;;;;;;;-1.06;100.00;99691.63;5016950;28;20034;-68
2022/12/12 10:13:14;;;;;;;58.55;25.52;;;;;;;-1.05;100.00;99694.13;5016777;28;20113;-68
2022/12/12 10:15:42;;;;;;;55.92;25.23;;;;;;;-1.04;100.00;99694.94;5007376;28;20025;-68
2022/12/12 10:18:26;;;;;;;55.83;25.63;;;;;;;-1.04;100.00;99689.50;5005974;28;20030;-68
2022/12/12 10:20:54;;;;;;;54.47;26.90;;;;;;;-1.01;100.00;99686.28;4974975;28;20048;-68
2022/12/12 10:23:32;;;;;;;56.92;27.63;;;;;;;-1.00;100.00;99686.06;5017088;28;20029;-68
2022/12/12 10:26:02;;;;;;;53.03;25.17;;;;;;;-0.98;100.00;99674.91;5000638;28;20030;-68
2022/12/12 10:28:29;;;;;;;60.08;28.77;;;;;;;-0.96;100.00;99667.31;5016275;28;20048;-68
2022/12/12 10:31:15;;;;;;;61.65;28.75;;;;;;;-0.95;100.00;99655.34;5031266;28;20633;-68
2022/12/12 10:33:50;;;;;;;68.53;30.45;;;;;;;-0.94;100.00;99648.84;5030133;28;20444;-69
2022/12/12 10:36:39;;;;;;;57.97;28.35;;;;;;;-0.95;100.00;99634.38;5017693;28;20107;-68
2022/12/12 10:39:16;;;;;;;62.97;29.73;;;;;;;-0.93;100.00;99647.75;5005403;28;20030;-68
2022/12/12 10:42:00;;;;;;;72.97;33.35;;;;;;;-0.92;100.00;99639.34;4987576;28;20508;-68
2022/12/12 10:44:32;;;;;;;75.57;34.42;;;;;;;-0.88;100.00;99639.69;5009541;28;20433;-68
2022/12/12 10:47:06;;;;;;;78.28;35.88;;;;;;;-0.86;100.00;99648.47;5003387;28;20065;-68
2022/12/12 10:49:32;;;;;;;77.10;36.90;;;;;;;-0.84;100.00;99646.31;4999361;28;20064;-68
2022/12/12 10:51:59;;;;;;;79.38;38.97;;;;;;;-0.79;100.00;99634.69;4999593;28;20034;-68
2022/12/12 10:54:25;;;;;;;72.95;35.92;;;;;;;-0.74;100.00;99623.91;5018320;28;20030;-68
2022/12/12 10:57:12;;;;;;;80.78;38.60;;;;;;;-0.70;100.00;99615.00;5012081;28;20526;-68
2022/12/12 10:59:57;;;;;;;76.22;38.83;;;;;;;-0.61;100.00;99607.25;5000936;28;20437;-68
2022/12/12 11:02:41;;;;;;;80.80;37.95;;;;;;;-0.54;100.00;99598.94;4999369;28;20482;-68
2022/12/12 11:05:22;;;;;;;82.80;39.40;;;;;;;-0.49;100.00;99588.13;5011181;28;20169;-68
2022/12/12 11:08:17;;;;;;;79.85;40.58;;;;;;;-0.46;100.00;99574.00;5000750;28;20522;-68
2022/12/12 11:10:42;;;;;;;77.90;39.45;;;;;;;-0.38;100.00;99580.97;5002428;28;20145;-68
2022/12/12 11:13:08;;;;;;;87.70;41.45;;;;;;;-0.33;100.00;99589.25;4999892;28;20022;-68
2022/12/12 11:15:43;;;;;;;82.60;40.00;;;;;;;-0.27;100.00;99586.34;5015623;28;20438;-68
2022/12/12 11:18:17;;;;;;;79.88;39.33;;;;;;;-0.21;100.00;99572.78;5002792;28;20713;-68
2022/12/12 11:20:47;;;;;;;75.07;38.05;;;;;;;-0.14;100.00;99573.44;5003853;28;20072;-68
2022/12/12 11:23:16;;;;;;;77.88;40.88;;;;;;;-0.09;100.00;99568.09;5019624;28;20026;-68
2022/12/12 11:25:41;;;;;;;78.60;39.95;;;;;;;-0.06;100.00;99554.75;4993360;28;20060;-68
2022/12/12 11:28:14;;;;;;;78.00;39.67;;;;;;;-0.02;100.00;99546.91;5007741;28;20033;-68
2022/12/12 11:30:41;;;;;;;80.82;40.03;;;;;;;0.03;100.00;99555.19;5002603;28;20026;-68